Latest Weather Observations for Rhyll

IDV60801

Issued at 11:02 pm EDT Saturday 28 February 2015 (issued every 30 minutes, with the page automatically refreshed every 10 minutes)

About weather observations | Map of weather stations | Latest weather observations for VIC | Other Formats
Station Details ID: 086373 Name: RHYLL Lat: -38.46 Lon: 145.31 Height: 13.4 m
Data from the previous 72 hours. | See also: Recent months at Rhyll
Date/Time
EDT
Temp
°C
App
Temp
°C
Dew
Point
Rel
Hum
%
Delta-T
°C
Wind Press
QNH
hPa
Press
MSL
hPa
Rain
since 9 am
mm
Dir
 
Spd
km/h
Gust
km/h
Spd
kts
Gust
kts
28/11:00pm 18.4 20.4 17.9 97 0.3 WNW 4 7 2 4 1006.0 1005.9 5.6
28/10:30pm 18.4 19.8 17.8 96 0.4 WSW 7 13 4 7 1005.4 1005.3 3.6
28/10:00pm 18.6 18.9 17.8 95 0.5 SSW 13 20 7 11 1004.5 1004.4 2.6
28/09:30pm 18.7 17.7 17.5 93 0.7 SW 19 41 10 22 1004.7 1004.6 1.2
28/09:00pm 19.5 14.7 16.7 84 1.7 WSW 37 74 20 40 1004.0 1003.9 0.4
28/08:51pm 24.0 21.6 15.5 59 5.1 W 22 74 12 40 1003.1 1003.0 0.0
28/08:48pm 25.2 24.3 15.8 56 5.7 WNW 15 28 8 15 1001.8 1001.7 0.0
28/08:30pm 25.7 23.9 16.0 55 5.9 N 20 32 11 17 999.8 999.7 0.0
28/08:00pm 23.7 23.7 18.1 71 3.5 NE 15 19 8 10 999.1 999.0 0.0
28/07:30pm 24.6 24.2 17.1 63 4.6 NE 15 19 8 10 999.3 999.2 0.0
28/07:00pm 24.2 23.9 18.2 69 3.8 ENE 17 20 9 11 999.6 999.5 0.0
28/06:30pm 24.6 25.0 18.1 67 4.1 ENE 13 15 7 8 1000.2 1000.1 0.0
28/06:00pm 24.3 24.9 18.5 70 3.7 ESE 13 13 7 7 1000.8 1000.7 0.0
28/05:30pm 24.3 25.7 18.7 71 3.6 ESE 9 11 5 6 1001.4 1001.3 0.0
28/05:00pm 24.0 25.0 17.7 68 3.9 E 9 9 5 5 1002.0 1001.9 0.0
28/04:30pm 23.5 24.9 17.9 71 3.5 ENE 7 11 4 6 1002.3 1002.2 0.0
28/04:00pm 22.9 24.3 17.4 71 3.4 ESE 6 7 3 4 1002.9 1002.8 0.0
28/03:30pm 22.8 24.0 16.8 69 3.7 ESE 6 7 3 4 1003.0 1002.9 0.0
28/03:00pm 23.1 24.6 17.6 71 3.4 ESE 6 7 3 4 1003.4 1003.3 0.0
28/02:30pm 22.6 23.6 17.7 74 3.0 ESE 9 11 5 6 1003.8 1003.7 0.0
28/02:00pm 22.6 23.9 17.5 73 3.2 ESE 7 9 4 5 1004.5 1004.4 0.0
28/01:30pm 21.7 23.8 17.3 76 2.7 ESE 2 7 1 4 1005.2 1005.1 0.0
28/01:00pm 21.9 24.5 17.5 76 2.7 CALM 0 4 0 2 1005.2 1005.1 0.0
28/12:30pm 21.4 23.7 16.8 75 2.8 CALM 0 2 0 1 1005.5 1005.4 0.0
28/12:00pm 20.9 22.0 15.7 72 3.1 WNW 4 9 2 5 1006.0 1005.9 0.0
28/11:30am 21.0 21.7 16.0 73 3.0 NNW 7 11 4 6 1006.1 1006.0 0.0
28/11:00am 20.8 21.3 16.6 77 2.6 NNE 9 13 5 7 1005.4 1005.3 0.0
28/10:30am 20.2 20.9 16.0 77 2.5 NNE 7 9 4 5 1005.8 1005.7 0.0
28/10:00am 19.7 20.1 16.2 80 2.1 NNE 9 15 5 8 1006.1 1006.0 0.0
28/09:30am 18.8 18.3 16.0 84 1.7 NNE 13 19 7 10 1006.1 1006.0 0.0
28/09:00am 18.4 18.3 16.0 86 1.4 NNE 11 17 6 9 1006.6 1006.5 0.0
28/08:30am 18.2 17.0 16.0 87 1.3 NE 17 20 9 11 1006.5 1006.4 0.0
28/08:00am 18.0 16.2 16.0 88 1.2 NNE 20 24 11 13 1006.2 1006.1 0.0
28/07:30am 17.5 15.1 15.5 88 1.2 N 22 30 12 16 1006.1 1006.0 0.0
28/07:00am 17.5 16.1 15.5 88 1.2 NNW 17 24 9 13 1006.2 1006.1 0.0
28/06:30am 17.6 17.7 15.4 87 1.3 N 9 17 5 9 1006.2 1006.1 0.0
28/06:00am 17.7 15.8 15.7 88 1.2 ENE 20 26 11 14 1005.8 1005.7 0.0
28/05:30am 17.8 15.8 15.6 87 1.3 ENE 20 28 11 15 1006.0 1005.9 0.0
28/05:00am 17.5 16.3 15.1 86 1.4 ENE 15 17 8 9 1006.6 1006.5 0.0
28/04:30am 17.1 16.0 14.2 83 1.7 ENE 13 15 7 8 1007.2 1007.1 0.0
28/04:00am 17.0 15.4 13.9 82 1.8 ENE 15 17 8 9 1008.0 1007.9 0.0
28/03:30am 16.7 16.7 13.6 82 1.7 ENE 6 9 3 5 1008.7 1008.6 0.0
28/03:00am 16.7 17.1 13.6 82 1.8 E 4 7 2 4 1008.9 1008.8 0.0
28/02:30am 16.7 14.9 13.4 81 1.9 E 15 20 8 11 1008.9 1008.8 0.0
28/02:00am 16.7 16.1 13.4 81 1.9 ESE 9 15 5 8 1009.7 1009.6 0.0
28/01:30am 16.8 15.4 13.3 80 2.0 ESE 13 19 7 10 1009.9 1009.8 0.0
28/01:00am 16.9 14.4 13.4 80 2.0 ESE 19 22 10 12 1010.2 1010.1 0.0
28/12:30am 17.0 14.4 13.3 79 2.1 ESE 19 22 10 12 1010.7 1010.6 0.0
28/12:00am 17.1 15.4 13.6 80 2.0 ESE 15 20 8 11 1010.9 1010.8 0.0
 
Date/Time
EDT
Temp
°C
App
Temp
°C
Dew
Point
Rel
Hum
%
Delta-T
°C
Wind Press
QNH
hPa
Press
MSL
hPa
Rain
since 9 am
mm
Dir
 
Spd
km/h
Gust
km/h
Spd
kts
Gust
kts
27/11:30pm 17.2 15.5 13.7 80 2.0 ESE 15 22 8 12 1011.1 1011.0 0.0
27/11:00pm 17.4 16.4 13.5 78 2.2 SE 11 19 6 10 1011.2 1011.1 0.0
27/10:30pm 17.5 17.0 13.8 79 2.1 SE 9 17 5 9 1011.5 1011.4 0.0
27/10:00pm 17.4 16.5 13.7 79 2.1 SSE 11 17 6 9 1011.3 1011.2 0.0
27/09:30pm 17.4 16.5 13.7 79 2.1 SSE 11 15 6 8 1010.9 1010.8 0.0
27/09:00pm 17.6 16.8 14.1 80 2.0 SSE 11 15 6 8 1010.8 1010.7 0.0
27/08:30pm 17.6 17.1 13.9 79 2.1 SE 9 15 5 8 1010.4 1010.3 0.0
27/08:00pm 17.5 16.2 13.8 79 2.1 SSE 13 17 7 9 1010.3 1010.2 0.0
27/07:30pm 17.7 16.9 14.0 79 2.1 SSE 11 17 6 9 1010.1 1010.0 0.0
27/07:00pm 17.9 16.3 14.0 78 2.2 SSE 15 20 8 11 1009.5 1009.4 0.0
27/06:30pm 18.4 17.7 14.3 77 2.4 SSE 11 19 6 10 1009.8 1009.7 0.0
27/06:00pm 18.4 17.2 14.1 76 2.5 SSE 13 20 7 11 1009.8 1009.7 0.0
27/05:30pm 19.2 17.8 14.5 74 2.7 SSE 15 20 8 11 1009.9 1009.8 0.0
27/05:00pm 19.5 18.4 14.3 72 3.0 S 13 19 7 10 1010.3 1010.2 0.0
27/04:30pm 20.4 19.4 14.7 70 3.3 S 13 19 7 10 1010.4 1010.3 0.0
27/04:00pm 20.5 20.2 15.5 73 3.0 SSE 11 19 6 10 1010.4 1010.3 0.0
27/03:30pm 20.9 20.5 15.2 70 3.4 S 11 17 6 9 1010.5 1010.4 0.0
27/03:00pm 22.2 22.3 15.5 66 4.0 S 9 15 5 8 1010.4 1010.3 0.0
27/02:30pm 22.7 22.7 15.3 63 4.4 S 9 15 5 8 1010.6 1010.5 0.0
27/02:00pm 22.9 23.2 16.0 65 4.2 S 9 15 5 8 1010.9 1010.8 0.0
27/01:30pm 23.3 24.0 17.1 68 3.8 S 9 15 5 8 1010.9 1010.8 0.0
27/01:00pm 21.9 22.3 16.2 70 3.4 S 9 15 5 8 1011.0 1010.9 0.0
27/12:30pm 22.2 22.5 16.0 68 3.7 SE 9 17 5 9 1011.3 1011.2 0.0
27/12:00pm 22.0 22.8 16.3 70 3.5 SE 7 11 4 6 1011.2 1011.1 0.0
27/11:30am 20.3 20.6 15.9 76 2.6 SE 9 15 5 8 1011.5 1011.4 0.0
27/11:00am 19.6 19.9 16.1 80 2.1 SSE 9 13 5 7 1011.6 1011.5 0.0
27/10:30am 18.7 18.7 15.2 80 2.1 SW 9 19 5 10 1011.6 1011.5 0.0
27/10:00am 19.0 19.6 15.7 81 2.0 N 7 13 4 7 1011.2 1011.1 0.0
27/09:30am 19.1 19.1 16.3 84 1.7 NNW 11 13 6 7 1011.2 1011.1 0.0
27/09:00am 17.9 18.3 16.2 90 1.0 N 9 13 5 7 1010.9 1010.8 0.0
27/08:30am 17.5 17.8 16.0 91 0.9 N 9 13 5 7 1010.9 1010.8 0.0
27/08:00am 17.2 18.5 16.1 93 0.7 NNW 4 7 2 4 1010.8 1010.7 0.0
27/07:30am 16.9 18.1 15.9 94 0.6 NNW 4 6 2 3 1010.5 1010.4 0.0
27/07:00am 16.2 17.0 14.9 92 0.7 NW 4 6 2 3 1010.2 1010.1 0.0
27/06:30am 16.0 16.8 14.9 93 0.6 WNW 4 6 2 3 1010.0 1009.9 0.0
27/06:00am 16.1 17.0 15.0 93 0.6 W 4 6 2 3 1010.0 1009.9 0.0
27/05:30am 16.3 17.2 15.2 93 0.6 W 4 6 2 3 1009.9 1009.8 0.0
27/05:00am 16.4 16.9 15.1 92 0.8 W 6 7 3 4 1010.0 1009.9 0.0
27/04:30am 16.3 16.7 14.8 91 0.9 WNW 6 7 3 4 1010.0 1009.9 0.0
27/04:00am 16.3 16.5 14.8 91 0.9 W 7 11 4 6 1010.2 1010.1 0.0
27/03:30am 16.7 16.7 14.3 86 1.4 W 7 11 4 6 1010.5 1010.4 0.0
27/03:00am 16.6 17.8 13.7 83 1.6 CALM 0 0 0 0 1010.5 1010.4 0.0
27/02:30am 17.6 18.7 14.7 83 1.7 WSW 2 4 1 2 1010.5 1010.4 0.0
27/02:00am 17.8 19.4 14.9 83 1.7 CALM 0 0 0 0 1010.7 1010.6 0.0
27/01:30am 17.9 18.7 14.8 82 1.8 WSW 4 4 2 2 1011.1 1011.0 0.0
27/01:00am 17.8 18.7 15.1 84 1.6 WSW 4 6 2 3 1011.5 1011.4 0.0
27/12:30am 17.6 18.5 15.0 85 1.5 W 4 4 2 2 1011.5 1011.4 0.0
27/12:00am 17.6 18.5 15.0 85 1.5 WSW 4 6 2 3 1011.6 1011.5 0.0
 
Date/Time
EDT
Temp
°C
App
Temp
°C
Dew
Point
Rel
Hum
%
Delta-T
°C
Wind Press
QNH
hPa
Press
MSL
hPa
Rain
since 9 am
mm
Dir
 
Spd
km/h
Gust
km/h
Spd
kts
Gust
kts
26/11:30pm 17.4 18.2 14.9 85 1.4 SW 4 6 2 3 1011.6 1011.5 0.0
26/11:00pm 17.6 18.5 15.0 85 1.5 SW 4 6 2 3 1011.7 1011.6 0.0
26/10:30pm 17.6 18.1 15.0 85 1.5 SW 6 7 3 4 1011.9 1011.8 0.0
26/10:00pm 17.5 17.9 14.8 84 1.6 SW 6 9 3 5 1012.0 1011.9 0.0
26/09:30pm 17.8 18.0 14.7 82 1.8 SSW 7 13 4 7 1011.8 1011.7 0.0
26/09:00pm 17.7 18.0 14.4 81 1.9 SSW 6 11 3 6 1011.4 1011.3 0.0
26/08:30pm 17.9 17.6 14.4 80 2.0 SSW 9 15 5 8 1011.0 1010.9 0.0
26/08:00pm 18.2 17.7 13.9 76 2.5 S 9 15 5 8 1010.6 1010.5 0.0
26/07:30pm 18.9 18.7 13.5 71 3.1 SSW 7 17 4 9 1010.4 1010.3 0.0
26/07:00pm 19.0 18.5 13.8 72 3.0 SSW 9 17 5 9 1010.1 1010.0 0.0
26/06:30pm 20.1 19.4 14.2 69 3.4 SSW 11 19 6 10 1009.8 1009.7 0.0
26/06:00pm 20.8 20.5 15.4 71 3.2 SSW 11 20 6 11 1009.7 1009.6 0.0
26/05:30pm 21.3 21.2 14.9 67 3.8 SSW 9 17 5 9 1009.7 1009.6 0.0
26/05:00pm 21.7 21.3 15.3 67 3.8 SSW 11 19 6 10 1009.9 1009.8 0.0
26/04:30pm 20.8 19.8 14.7 68 3.6 SSW 13 24 7 13 1010.0 1009.9 0.0
26/04:00pm 21.8 21.2 14.7 64 4.2 SSW 11 26 6 14 1010.0 1009.9 0.0
26/03:30pm 21.8 20.5 14.9 65 4.1 SSW 15 24 8 13 1010.2 1010.1 0.0
26/03:00pm 20.8 18.7 13.5 63 4.2 SW 17 26 9 14 1010.6 1010.5 0.0
26/02:30pm 20.8 18.9 14.2 66 3.8 SSW 17 28 9 15 1010.6 1010.5 0.0
26/02:00pm 21.3 20.0 15.8 71 3.3 SSW 17 30 9 16 1010.7 1010.6 0.0
26/01:30pm 21.1 19.3 15.4 70 3.4 SW 19 28 10 15 1010.6 1010.5 0.0
26/01:00pm 20.7 18.9 15.5 72 3.1 SSW 19 30 10 16 1010.7 1010.6 0.0
26/12:30pm 20.1 19.4 16.5 80 2.2 SW 15 22 8 12 1010.8 1010.7 0.0
26/12:00pm 20.2 19.0 16.0 77 2.5 SW 17 24 9 13 1011.0 1010.9 0.0
26/11:30am 20.4 19.9 16.0 76 2.6 SW 13 22 7 12 1010.9 1010.8 0.0
26/11:00am 20.4 20.7 16.0 76 2.6 WSW 9 19 5 10 1010.7 1010.6 0.0
26/10:30am 19.9 20.3 16.2 79 2.2 W 9 19 5 10 1010.5 1010.4 0.0
26/10:00am 19.5 19.5 16.3 82 1.9 W 11 17 6 9 1010.4 1010.3 0.0
26/09:30am 20.1 20.9 17.3 84 1.7 W 9 15 5 8 1010.2 1010.1 0.0
26/09:00am 18.8 20.0 16.8 88 1.2 W 6 13 3 7 1010.0 1009.9 0.0
26/08:30am 18.3 19.4 16.5 89 1.1 W 6 9 3 5 1010.0 1009.9 0.0
26/08:00am 18.0 19.6 16.0 88 1.2 WNW 2 6 1 3 1009.5 1009.4 0.0
26/07:30am 18.0 19.4 16.3 90 1.0 WNW 4 7 2 4 1009.4 1009.3 0.0
26/07:00am 17.8 18.6 16.3 91 0.9 NNW 7 13 4 7 1009.2 1009.1 0.0
26/06:30am 17.7 18.6 16.0 90 1.0 NNW 6 9 3 5 1008.9 1008.8 0.0
26/06:00am 18.1 18.9 16.4 90 1.0 NNW 7 11 4 6 1008.5 1008.4 0.0
26/05:30am 17.6 18.8 15.9 90 1.0 NNE 4 7 2 4 1008.2 1008.1 0.0
26/05:00am 17.6 18.8 15.9 90 1.0 NNW 4 7 2 4 1008.4 1008.3 0.0
26/04:30am 17.2 18.3 15.5 90 1.0 NNW 4 6 2 3 1008.6 1008.5 0.0
26/04:00am 16.9 17.4 14.9 88 1.2 NNW 6 6 3 3 1008.6 1008.5 0.0
26/03:30am 17.2 18.0 14.8 86 1.4 WNW 4 6 2 3 1009.0 1008.9 0.0
26/03:00am 17.0 17.1 14.5 85 1.4 NW 7 15 4 8 1008.7 1008.6 0.0
26/02:30am 16.6 17.2 14.2 86 1.4 NW 4 6 2 3 1009.0 1008.9 0.0
26/02:00am 17.1 18.2 14.6 85 1.4 WNW 2 6 1 3 1009.1 1009.0 0.0
26/01:30am 17.1 17.9 14.7 86 1.4 W 4 6 2 3 1009.5 1009.4 0.0
26/01:00am 17.5 18.4 15.0 85 1.5 WSW 4 7 2 4 1009.6 1009.5 0.0
26/12:30am 17.6 19.2 14.9 84 1.6 CALM 0 0 0 0 1009.6 1009.5 0.0
26/12:00am 17.9 19.1 15.0 83 1.7 ESE 2 4 1 2 1009.8 1009.7 0.0
 
Date/Time
EDT
Temp
°C
App
Temp
°C
Dew
Point
Rel
Hum
%
Delta-T
°C
Wind Press
QNH
hPa
Press
MSL
hPa
Rain
since 9 am
mm
Dir
 
Spd
km/h
Gust
km/h
Spd
kts
Gust
kts
25/11:30pm 17.6 17.8 14.1 80 2.0 E 6 7 3 4 1010.1 1010.0 0.0

Other Formats:

Comma delimited format used in spreadsheet applications
http://www.bom.gov.au/fwo/IDV60801/IDV60801.94892.axf

JavaScript Object Notation format (JSON) in row-major order
http://www.bom.gov.au/fwo/IDV60801/IDV60801.94892.json